• Join FlightAware (Why Join?)
  • Login
  • US Flag 
05:48PM EDT


 

Airport Tracker/Info


-or-


 

Live Flight TrackerFlight Track Log ✈ CSZ9902 ✈ 13-Jul-2013 ✈ ZJSY / SYX - ZGSZ / SZX

Flight Track Log - Related Links

Times and Time Zones

All times are in EDT time to prevent confusion due to time zone crossing. See the CSZ9902 flight status page for this flight to view local times or setup timezone preferences in your user account.

Time Position Orientation Groundspeed Altitude Reporting Facility
EDT Latitude Longitude Course Direction KTS MPH feet Rate Location/Type
09:22AM 18.6511 109.7529 43° Northeast  Level Estimated
09:23AM 18.7207 109.8212 43° Northeast  Level Estimated
09:24AM 18.7903 109.8896 43° Northeast  Level Estimated
09:25AM 18.8598 109.9580 43° Northeast  Level Estimated
09:26AM 18.9293 110.0265 43° Northeast  Level Estimated
09:27AM 18.9988 110.0950 43° Northeast  Level Estimated
09:28AM 19.0682 110.1636 43° Northeast  Level Estimated
09:29AM 19.1377 110.2322 43° Northeast  Level Estimated
09:30AM 19.2071 110.3009 43° Northeast  Level Estimated
09:31AM 19.2764 110.3696 43° Northeast  Level Estimated
09:32AM 19.3458 110.4384 43° Northeast  Level Estimated
09:33AM 19.4151 110.5073 43° Northeast  Level Estimated
09:34AM 19.4844 110.5762 43° Northeast  Level Estimated
09:35AM 19.5537 110.6452 43° Northeast  Level Estimated
09:36AM 19.6229 110.7143 43° Northeast  Level Estimated
09:37AM 19.6922 110.7834 43° Northeast  Level Estimated
09:38AM 19.7614 110.8526 43° Northeast  Level Estimated
09:39AM 19.8305 110.9218 43° Northeast  Level Estimated
09:40AM 19.8997 110.9911 43° Northeast  Level Estimated
09:41AM 19.9688 111.0604 43° Northeast  Level Estimated
09:42AM 20.0379 111.1298 43° Northeast  Level Estimated
09:43AM 20.1069 111.1993 43° Northeast  Level Estimated
09:44AM 20.1759 111.2688 43° Northeast  Level Estimated
09:45AM 20.2449 111.3384 43° Northeast  Level Estimated
09:46AM 20.3139 111.4081 43° Northeast  Level Estimated
09:47AM 20.3829 111.4778 43° Northeast  Level Estimated
09:48AM 20.4518 111.5476 43° Northeast  Level Estimated
09:49AM 20.5207 111.6174 44° Northeast  Level Estimated
09:50AM 20.5896 111.6873 44° Northeast  Level Estimated
09:51AM 20.6584 111.7573 44° Northeast  Level Estimated
09:52AM 20.7272 111.8273 44° Northeast  Level Estimated
09:53AM 20.7960 111.8974 44° Northeast  Level Estimated
09:54AM 20.8647 111.9676 44° Northeast  Level Estimated
09:55AM 20.9335 112.0378 44° Northeast  Level Estimated
09:56AM 21.0021 112.1081 44° Northeast  Level Estimated
09:57AM 21.0708 112.1784 44° Northeast  Level Estimated
09:58AM 21.1395 112.2488 44° Northeast  Level Estimated
09:59AM 21.2081 112.3193 44° Northeast  Level Estimated
10:00AM 21.2766 112.3899 44° Northeast  Level Estimated
10:01AM 21.3452 112.4605 44° Northeast  Level Estimated
10:02AM 21.4137 112.5312 44° Northeast  Level Estimated
10:03AM 21.4822 112.6019 44° Northeast  Level Estimated
10:04AM 21.5507 112.6727 44° Northeast  Level Estimated
10:05AM 21.6191 112.7436 44° Northeast  Level Estimated
10:06AM 21.6875 112.8145 44° Northeast  Level Estimated
10:07AM 21.7559 112.8855 44° Northeast  Level Estimated
10:08AM 21.8242 112.9566 44° Northeast  Level Estimated
10:09AM 21.8925 113.0278 44° Northeast  Level Estimated
10:10AM 21.9608 113.0990 44° Northeast  Level Estimated
10:11AM 22.0291 113.1703 44° Northeast  Level Estimated
10:12AM 22.0973 113.2416 44° Northeast  Level Estimated
10:13AM 22.1655 113.3130 44° Northeast  Level Estimated
10:14AM 22.2336 113.3845 44° Northeast  Level Estimated
10:15AM 22.3017 113.4561 44° Northeast  Level Estimated
10:16AM 22.3698 113.5277 44° Northeast  Level Estimated
10:17AM 22.4379 113.5994 44° Northeast  Level Estimated
10:18AM 22.5059 113.6712 44° Northeast  Level Estimated
10:19AM 22.5739 113.7430 44° Northeast  Level Estimated
10:20AM 22.6395 113.8124 44° Northeast  Level Estimated
10:21AM 22.6395 113.8124 25° Northeast  Level Estimated
10:22AM 22.6395 113.8124 25° Northeast  Level Estimated
10:23AM 22.6395 113.8124 25° Northeast  Level Estimated
10:24AM 22.6395 113.8124 25° Northeast  Level Estimated
10:25AM 22.6395 113.8124 25° Northeast  Level Estimated
10:26AM 22.6395 113.8124 25° Northeast  Level Estimated
10:27AM 22.6395 113.8124 25° Northeast  Level Estimated
10:28AM 22.6395 113.8124 25° Northeast  Level Estimated
10:29AM 22.6395 113.8124 25° Northeast  Level Estimated
10:30AM 22.6395 113.8124 25° Northeast  Level Estimated
10:31AM 22.6395 113.8124 25° Northeast  Level Estimated
10:32AM 22.6395 113.8124 25° Northeast  Level Estimated
10:33AM 22.6395 113.8124 25° Northeast  Level Estimated
10:34AM 22.6395 113.8124 25° Northeast  Level Estimated
10:35AM 22.6395 113.8124 25° Northeast  Level Estimated
10:36AM 22.6395 113.8124 25° Northeast  Level Estimated